createdAt,value
2022-08-25T00:00:50.264Z,2.97
2022-08-25T00:03:25.726Z,2.77
2022-08-25T00:05:54.162Z,2.83
2022-08-25T00:08:21.281Z,2.63
2022-08-25T00:10:59.860Z,2.83
2022-08-25T00:13:31.689Z,2.20
2022-08-25T00:15:59.911Z,3.03
2022-08-25T00:18:27.601Z,2.83
2022-08-25T00:20:57.470Z,3.50
2022-08-25T00:23:25.193Z,2.33
2022-08-25T00:25:52.891Z,2.50
2022-08-25T00:28:21.227Z,2.50
2022-08-25T00:30:50.009Z,2.50
2022-08-25T00:33:18.472Z,3.13
2022-08-25T00:35:46.267Z,2.83
2022-08-25T00:38:14.096Z,3.40
2022-08-25T00:40:44.019Z,2.77
2022-08-25T00:43:12.394Z,2.67
2022-08-25T00:45:41.314Z,2.53
2022-08-25T00:48:08.910Z,2.40
2022-08-25T00:50:37.018Z,3.93
2022-08-25T00:53:08.654Z,2.83
2022-08-25T00:55:40.384Z,2.63
2022-08-25T00:58:18.831Z,3.17
2022-08-25T01:00:50.734Z,2.77
2022-08-25T01:03:33.091Z,3.20
2022-08-25T01:06:07.701Z,3.17
2022-08-25T01:08:35.544Z,3.33
2022-08-25T01:11:07.241Z,2.60
2022-08-25T01:13:40.436Z,2.93
2022-08-25T01:16:08.709Z,2.97
2022-08-25T01:18:58.442Z,3.50
2022-08-25T01:21:27.831Z,2.90
2022-08-25T01:23:58.400Z,3.33
2022-08-25T01:26:33.280Z,2.93
2022-08-25T01:29:21.627Z,3.37
2022-08-25T01:31:57.422Z,2.73
2022-08-25T01:34:29.019Z,3.20
2022-08-25T01:36:59.743Z,3.40
2022-08-25T01:39:30.317Z,3.93
2022-08-25T01:42:18.013Z,3.07
2022-08-25T01:44:48.403Z,2.93
2022-08-25T01:47:16.776Z,3.87
2022-08-25T01:49:45.140Z,3.40
2022-08-25T01:52:30.348Z,3.03
2022-08-25T01:54:58.295Z,3.57
2022-08-25T01:57:26.042Z,3.70
2022-08-25T01:59:53.840Z,2.87
2022-08-25T02:02:21.838Z,3.47
2022-08-25T02:04:49.577Z,3.30
2022-08-25T02:07:19.280Z,3.50
2022-08-25T02:09:46.720Z,3.33
2022-08-25T02:12:14.537Z,3.30
2022-08-25T02:14:42.810Z,3.00
2022-08-25T02:17:10.514Z,3.27
2022-08-25T02:19:38.396Z,3.60
2022-08-25T02:22:06.428Z,3.60
2022-08-25T02:24:35.099Z,3.40
2022-08-25T02:27:04.336Z,3.53
2022-08-25T02:29:31.767Z,3.50
2022-08-25T02:31:59.301Z,3.47
2022-08-25T02:34:27.853Z,3.40
2022-08-25T02:36:55.469Z,2.83
2022-08-25T02:39:23.632Z,2.93
2022-08-25T02:41:51.934Z,3.80
2022-08-25T02:44:19.935Z,3.80
2022-08-25T02:46:47.751Z,4.10
2022-08-25T02:49:15.239Z,3.87
2022-08-25T02:51:43.064Z,3.33
2022-08-25T02:54:10.817Z,3.70
2022-08-25T02:56:38.387Z,3.57
2022-08-25T02:59:05.962Z,3.20
2022-08-25T03:01:34.289Z,4.37
2022-08-25T03:04:02.600Z,3.53
2022-08-25T03:06:31.123Z,2.93
2022-08-25T03:08:59.049Z,3.97
2022-08-25T03:11:26.710Z,3.30
2022-08-25T03:13:54.915Z,3.13
2022-08-25T03:16:22.729Z,3.07
2022-08-25T03:18:56.320Z,4.17
2022-08-25T03:21:25.202Z,3.73
2022-08-25T03:23:53.349Z,3.87
2022-08-25T03:26:39.990Z,3.27
2022-08-25T03:29:07.967Z,3.77
2022-08-25T03:31:36.178Z,4.03
2022-08-25T03:34:05.870Z,3.40
2022-08-25T03:36:33.632Z,3.23
2022-08-25T03:39:01.210Z,2.70
2022-08-25T03:41:32.954Z,2.67
2022-08-25T03:44:01.479Z,3.67
2022-08-25T03:46:34.652Z,3.10
2022-08-25T03:49:04.801Z,3.10
2022-08-25T03:51:37.771Z,4.03
2022-08-25T03:54:06.596Z,3.03
2022-08-25T03:56:34.152Z,3.30
2022-08-25T03:59:02.102Z,3.03
2022-08-25T04:01:30.116Z,3.33
2022-08-25T04:03:57.806Z,2.53
2022-08-25T04:06:25.492Z,3.50
2022-08-25T04:08:53.137Z,2.40
2022-08-25T04:11:23.687Z,2.63
2022-08-25T04:13:52.963Z,2.60
2022-08-25T04:16:25.378Z,3.07
2022-08-25T04:18:55.143Z,3.27
2022-08-25T04:21:25.403Z,2.80
2022-08-25T04:23:57.013Z,2.93
2022-08-25T04:26:35.785Z,3.27
2022-08-25T04:29:10.039Z,2.67
2022-08-25T04:31:42.992Z,2.93
2022-08-25T04:34:17.687Z,2.87
2022-08-25T04:36:58.385Z,3.03
2022-08-25T04:39:26.309Z,3.10
2022-08-25T04:41:53.878Z,3.07
2022-08-25T04:44:21.793Z,1.90
2022-08-25T04:46:50.077Z,3.10
2022-08-25T04:49:17.757Z,2.97
2022-08-25T04:51:50.321Z,2.93
2022-08-25T04:54:22.857Z,3.27
2022-08-25T04:56:58.414Z,3.20
2022-08-25T04:59:30.369Z,3.13
2022-08-25T05:02:05.291Z,3.07
2022-08-25T05:04:35.918Z,2.73
2022-08-25T05:07:04.412Z,3.30
2022-08-25T05:09:33.100Z,2.70
2022-08-25T05:12:02.937Z,3.00
2022-08-25T05:14:31.475Z,2.57
2022-08-25T05:16:59.774Z,3.23
2022-08-25T05:19:27.838Z,2.53
2022-08-25T05:21:57.717Z,2.60
2022-08-25T05:24:25.959Z,2.87
2022-08-25T05:26:53.739Z,3.07
2022-08-25T05:29:21.757Z,3.20
2022-08-25T05:31:52.197Z,2.20
2022-08-25T05:34:20.373Z,2.87
2022-08-25T05:36:49.164Z,2.20
2022-08-25T05:39:16.730Z,2.77
2022-08-25T05:41:44.430Z,2.13
2022-08-25T05:44:12.937Z,1.97
2022-08-25T05:46:40.556Z,3.20
2022-08-25T05:49:08.079Z,3.00
2022-08-25T05:51:35.831Z,2.87
2022-08-25T05:54:03.983Z,2.90
2022-08-25T05:56:31.952Z,2.93
2022-08-25T05:58:59.483Z,3.17
2022-08-25T06:01:48.398Z,3.13
2022-08-25T06:04:20.460Z,2.80
2022-08-25T06:06:48.864Z,2.40
2022-08-25T06:09:16.751Z,3.00
2022-08-25T06:11:44.922Z,2.60
2022-08-25T06:14:12.468Z,2.87
2022-08-25T06:16:40.526Z,2.80
2022-08-25T06:19:12.028Z,3.40
2022-08-25T06:21:42.023Z,3.00
2022-08-25T06:24:15.250Z,3.10
2022-08-25T06:26:44.318Z,3.27
2022-08-25T06:29:14.247Z,3.50
2022-08-25T06:31:42.721Z,3.20
2022-08-25T06:34:11.823Z,3.37
2022-08-25T06:36:39.830Z,3.13
2022-08-25T06:39:07.790Z,3.47
2022-08-25T06:41:38.950Z,3.43
2022-08-25T06:44:07.003Z,3.20
2022-08-25T06:46:36.168Z,3.70
2022-08-25T06:49:06.981Z,3.27
2022-08-25T06:51:38.292Z,3.03
2022-08-25T06:54:10.327Z,3.17
2022-08-25T06:56:39.456Z,2.80
2022-08-25T06:59:08.816Z,3.53
2022-08-25T07:01:37.467Z,3.00
2022-08-25T07:04:11.725Z,3.63
2022-08-25T07:06:41.112Z,2.80
2022-08-25T07:09:12.799Z,3.37
2022-08-25T07:11:42.167Z,3.13
2022-08-25T07:14:14.546Z,2.73
2022-08-25T07:16:49.160Z,3.00
2022-08-25T07:19:21.192Z,3.40
2022-08-25T07:21:52.695Z,2.83
2022-08-25T07:24:20.812Z,3.03
2022-08-25T07:26:48.778Z,2.97
2022-08-25T07:29:31.674Z,3.17
2022-08-25T07:32:02.504Z,2.90
2022-08-25T07:34:51.812Z,3.07
2022-08-25T07:37:47.999Z,3.57
2022-08-25T07:40:24.063Z,2.77
2022-08-25T07:42:56.492Z,3.00
2022-08-25T07:45:32.355Z,3.37
2022-08-25T07:48:11.112Z,3.63
2022-08-25T07:50:50.064Z,3.37
2022-08-25T07:53:25.730Z,2.97
2022-08-25T07:55:55.343Z,2.70
2022-08-25T07:58:23.028Z,2.87
2022-08-25T08:00:53.401Z,3.17
2022-08-25T08:03:42.187Z,2.97
2022-08-25T08:06:15.720Z,2.73
2022-08-25T08:08:49.391Z,3.07
2022-08-25T08:11:28.232Z,2.63
2022-08-25T08:13:59.375Z,3.90
2022-08-25T08:16:30.150Z,3.00
2022-08-25T08:18:59.527Z,2.90
2022-08-25T08:21:32.570Z,2.93
2022-08-25T08:24:01.161Z,3.17
2022-08-25T08:26:48.267Z,2.37
2022-08-25T08:29:20.310Z,2.70
2022-08-25T08:31:50.328Z,2.80
2022-08-25T08:34:17.878Z,2.70
2022-08-25T08:36:47.718Z,2.80
2022-08-25T08:39:15.449Z,2.40
2022-08-25T08:42:12.131Z,2.90
2022-08-25T08:45:21.732Z,2.53
2022-08-25T08:48:31.738Z,2.70
2022-08-25T08:51:15.427Z,2.73
2022-08-25T08:54:04.985Z,2.63
2022-08-25T08:56:45.463Z,2.57
2022-08-25T08:59:30.089Z,2.33
2022-08-25T09:02:04.221Z,2.53
2022-08-25T09:04:49.612Z,2.70
2022-08-25T09:07:56.181Z,1.60
2022-08-25T09:10:43.136Z,2.20
2022-08-25T09:13:19.429Z,1.70
2022-08-25T09:16:37.277Z,2.10
2022-08-25T09:19:41.914Z,2.40
2022-08-25T09:22:42.609Z,2.10
2022-08-25T09:25:54.001Z,1.47
2022-08-25T09:28:49.146Z,1.93
2022-08-25T09:31:29.351Z,1.97
2022-08-25T09:34:02.724Z,1.97
2022-08-25T09:36:37.509Z,2.03
2022-08-25T09:39:10.212Z,1.88
2022-08-25T09:41:52.406Z,2.80
2022-08-25T09:44:26.070Z,1.50
2022-08-25T09:47:17.861Z,2.75
2022-08-25T09:50:05.217Z,2.05
2022-08-25T09:52:41.383Z,1.75
2022-08-25T09:55:13.101Z,1.90
2022-08-25T09:57:43.498Z,2.40
2022-08-25T10:00:34.142Z,2.90
2022-08-25T10:03:12.658Z,2.30
2022-08-25T10:06:00.188Z,1.53
2022-08-25T10:08:45.765Z,1.90
2022-08-25T10:11:34.417Z,1.93
2022-08-25T10:14:16.932Z,1.63
2022-08-25T10:16:48.992Z,1.97
2022-08-25T10:19:22.464Z,2.33
2022-08-25T10:22:34.804Z,2.30
2022-08-25T10:25:11.259Z,1.77
2022-08-25T10:28:16.507Z,1.50
2022-08-25T10:31:16.447Z,1.90
2022-08-25T10:34:18.583Z,1.63
2022-08-25T10:37:01.840Z,2.07
2022-08-25T10:39:54.923Z,1.83
2022-08-25T10:42:55.172Z,1.53
2022-08-25T10:45:43.583Z,1.77
2022-08-25T10:48:28.801Z,1.37
2022-08-25T10:51:20.436Z,1.53
2022-08-25T10:54:28.659Z,1.80
2022-08-25T10:57:25.278Z,1.80
2022-08-25T11:00:17.215Z,1.67
2022-08-25T11:03:04.055Z,1.87
2022-08-25T11:05:40.774Z,1.60
2022-08-25T11:08:24.490Z,1.83
2022-08-25T11:11:13.188Z,1.70
2022-08-25T11:13:53.094Z,1.43
2022-08-25T11:16:45.409Z,1.93
2022-08-25T11:19:32.770Z,1.87
2022-08-25T11:22:21.252Z,1.60
2022-08-25T11:24:53.901Z,2.17
2022-08-25T11:27:37.974Z,1.30
2022-08-25T11:30:14.351Z,1.83
2022-08-25T11:32:49.673Z,1.33
2022-08-25T11:35:28.273Z,2.00
2022-08-25T11:38:20.037Z,1.50
2022-08-25T11:41:01.131Z,1.90
2022-08-25T11:43:57.925Z,1.80
2022-08-25T11:46:45.874Z,1.87
2022-08-25T11:49:43.590Z,1.40
2022-08-25T11:52:35.054Z,1.93
2022-08-25T11:55:33.393Z,1.70
2022-08-25T11:58:44.698Z,1.90
2022-08-25T12:01:39.149Z,1.57
2022-08-25T12:04:44.689Z,1.67
2022-08-25T12:08:11.107Z,2.27
2022-08-25T12:11:10.680Z,1.60
2022-08-25T12:13:51.501Z,1.93
2022-08-25T12:16:42.123Z,1.83
2022-08-25T12:19:34.466Z,1.70
2022-08-25T12:22:03.361Z,1.77
2022-08-25T12:24:47.863Z,1.60
2022-08-25T12:27:33.842Z,1.60
2022-08-25T12:30:43.662Z,1.73
2022-08-25T12:34:04.691Z,1.97
2022-08-25T12:36:34.660Z,2.07
2022-08-25T12:39:24.260Z,1.90
2022-08-25T12:42:05.049Z,2.20
2022-08-25T12:44:48.012Z,1.83
2022-08-25T12:47:19.845Z,1.70
2022-08-25T12:49:51.557Z,1.43
2022-08-25T12:52:27.977Z,1.40
2022-08-25T12:55:05.548Z,1.63
2022-08-25T12:57:58.852Z,1.90
2022-08-25T13:00:45.848Z,1.63
2022-08-25T13:04:11.909Z,1.93
2022-08-25T13:07:09.785Z,1.73
2022-08-25T13:10:08.404Z,1.87
2022-08-25T13:12:49.858Z,2.03
2022-08-25T13:15:38.633Z,2.20
2022-08-25T13:18:31.640Z,1.40
2022-08-25T13:21:07.723Z,1.63
2022-08-25T13:23:42.944Z,1.70
2022-08-25T13:26:23.521Z,1.70
2022-08-25T13:29:09.344Z,1.53
2022-08-25T13:31:42.104Z,1.97
2022-08-25T13:34:21.244Z,2.13
2022-08-25T13:37:08.174Z,1.50
2022-08-25T13:39:56.199Z,1.97
2022-08-25T13:42:28.804Z,1.80
2022-08-25T13:44:57.194Z,1.97
2022-08-25T13:47:45.815Z,2.03
2022-08-25T13:50:29.750Z,1.77
2022-08-25T13:53:22.846Z,1.93
2022-08-25T13:56:00.791Z,1.63
2022-08-25T13:58:45.012Z,1.83
2022-08-25T14:01:46.562Z,2.00
2022-08-25T14:04:24.711Z,2.00
2022-08-25T14:07:34.202Z,1.77
2022-08-25T14:10:06.791Z,1.50
2022-08-25T14:12:42.009Z,1.53
2022-08-25T14:15:18.487Z,1.70
2022-08-25T14:17:59.791Z,2.23
2022-08-25T14:20:31.176Z,1.70
2022-08-25T14:23:09.281Z,1.70
2022-08-25T14:25:42.253Z,1.53
2022-08-25T14:28:18.520Z,1.97
2022-08-25T14:30:54.873Z,2.07
2022-08-25T14:33:30.043Z,1.43
2022-08-25T14:36:00.382Z,2.00
2022-08-25T14:38:28.070Z,2.00
2022-08-25T14:40:55.539Z,1.77
2022-08-25T14:43:31.598Z,1.67
2022-08-25T14:46:04.617Z,1.67
2022-08-25T14:48:49.017Z,1.77
2022-08-25T14:51:17.410Z,1.70
2022-08-25T14:53:45.588Z,1.90
2022-08-25T14:56:16.335Z,1.90
2022-08-25T14:58:50.788Z,1.80
2022-08-25T15:01:29.565Z,2.00
2022-08-25T15:04:20.591Z,2.07
2022-08-25T15:06:55.087Z,1.87
2022-08-25T15:09:22.965Z,1.93
2022-08-25T15:11:57.195Z,1.53
2022-08-25T15:14:28.609Z,2.00
2022-08-25T15:16:57.930Z,1.93
2022-08-25T15:19:27.670Z,1.70
2022-08-25T15:21:58.133Z,1.83
2022-08-25T15:24:28.469Z,1.87
2022-08-25T15:27:05.409Z,2.00
2022-08-25T15:29:37.687Z,1.87
2022-08-25T15:32:08.249Z,1.67
2022-08-25T15:34:36.824Z,2.43
2022-08-25T15:37:16.395Z,1.70
2022-08-25T15:39:46.212Z,2.10
2022-08-25T15:42:16.466Z,2.20
2022-08-25T15:44:53.405Z,1.80
2022-08-25T15:47:23.079Z,1.40
2022-08-25T15:50:03.120Z,1.83
2022-08-25T15:52:44.514Z,2.03
2022-08-25T15:55:17.162Z,1.77
2022-08-25T15:57:47.515Z,1.50
2022-08-25T16:00:21.519Z,1.53
2022-08-25T16:02:52.564Z,2.17
2022-08-25T16:05:25.700Z,2.77
2022-08-25T16:07:56.091Z,2.07
2022-08-25T16:10:23.989Z,1.93
2022-08-25T16:12:55.872Z,1.70
2022-08-25T16:15:28.863Z,2.00
2022-08-25T16:17:58.816Z,1.43
2022-08-25T16:20:28.077Z,1.53
2022-08-25T16:22:55.671Z,1.63
2022-08-25T16:25:23.646Z,2.17
2022-08-25T16:27:51.954Z,1.33
2022-08-25T16:30:20.641Z,1.63
2022-08-25T16:32:48.563Z,2.20
2022-08-25T16:35:19.005Z,1.97
2022-08-25T16:37:49.618Z,1.83
2022-08-25T16:40:19.111Z,1.83
2022-08-25T16:42:48.710Z,2.00
2022-08-25T16:45:17.694Z,1.40
2022-08-25T16:47:48.444Z,1.80
2022-08-25T16:50:17.157Z,1.80
2022-08-25T16:53:04.371Z,1.87
2022-08-25T16:55:38.771Z,1.73
2022-08-25T16:58:08.198Z,1.77
2022-08-25T17:00:41.163Z,2.17
2022-08-25T17:03:13.423Z,2.30
2022-08-25T17:05:49.363Z,1.47
2022-08-25T17:08:31.159Z,1.50
2022-08-25T17:11:10.877Z,1.73
2022-08-25T17:13:45.976Z,1.83
2022-08-25T17:16:17.499Z,2.30
2022-08-25T17:18:49.282Z,1.80
2022-08-25T17:21:24.992Z,2.00
2022-08-25T17:23:54.710Z,1.73
2022-08-25T17:26:27.891Z,2.00
2022-08-25T17:28:57.820Z,1.60
2022-08-25T17:31:30.881Z,2.30
2022-08-25T17:34:01.733Z,2.13
2022-08-25T17:36:29.895Z,1.90
2022-08-25T17:38:57.543Z,11.63
2022-08-25T17:41:26.015Z,5.23
2022-08-25T17:43:53.712Z,1.90
2022-08-25T17:46:21.449Z,2.10
2022-08-25T17:48:49.083Z,1.83
2022-08-25T17:51:18.943Z,1.33
2022-08-25T17:53:47.006Z,2.00
2022-08-25T17:56:18.678Z,1.40
2022-08-25T17:58:47.383Z,1.93
2022-08-25T18:01:40.651Z,1.77
2022-08-25T18:04:17.341Z,1.60
2022-08-25T18:06:46.435Z,1.67
2022-08-25T18:09:14.853Z,2.13
2022-08-25T18:11:42.683Z,1.80
2022-08-25T18:14:11.623Z,1.73
2022-08-25T18:16:39.761Z,1.80
2022-08-25T18:19:10.880Z,2.43
2022-08-25T18:21:43.177Z,1.47
2022-08-25T18:24:11.521Z,1.83
2022-08-25T18:26:41.090Z,1.83
2022-08-25T18:29:13.147Z,1.77
2022-08-25T18:31:41.753Z,1.90
2022-08-25T18:34:11.450Z,1.97
2022-08-25T18:36:39.550Z,2.27
2022-08-25T18:39:26.657Z,2.00
2022-08-25T18:41:57.129Z,2.80
2022-08-25T18:44:24.577Z,2.87
2022-08-25T18:46:52.343Z,2.30
2022-08-25T18:49:26.819Z,2.07
2022-08-25T18:51:56.337Z,2.63
2022-08-25T18:54:23.994Z,2.17
2022-08-25T18:56:53.158Z,2.23
2022-08-25T18:59:23.780Z,1.63
2022-08-25T19:01:54.123Z,2.57
2022-08-25T19:04:28.528Z,2.70
2022-08-25T19:07:01.380Z,2.47
2022-08-25T19:09:30.610Z,1.57
2022-08-25T19:11:58.943Z,1.97
2022-08-25T19:14:29.641Z,1.73
2022-08-25T19:16:59.518Z,2.73
2022-08-25T19:19:30.694Z,2.27
2022-08-25T19:21:59.184Z,2.30
2022-08-25T19:24:28.350Z,2.57
2022-08-25T19:26:57.677Z,2.27
2022-08-25T19:29:25.728Z,2.67
2022-08-25T19:31:53.728Z,2.53
2022-08-25T19:34:35.915Z,2.47
2022-08-25T19:37:05.854Z,1.83
2022-08-25T19:39:36.087Z,2.33
2022-08-25T19:42:08.132Z,1.67
2022-08-25T19:44:55.798Z,2.33
2022-08-25T19:47:23.952Z,1.90
2022-08-25T19:49:51.784Z,2.23
2022-08-25T19:52:26.540Z,2.47
2022-08-25T19:54:54.497Z,2.10
2022-08-25T19:57:28.460Z,1.87
2022-08-25T20:00:17.955Z,1.93
2022-08-25T20:02:48.499Z,2.10
2022-08-25T20:05:23.824Z,2.50
2022-08-25T20:07:54.862Z,2.20
2022-08-25T20:10:24.183Z,2.77
2022-08-25T20:12:54.339Z,2.40
2022-08-25T20:15:22.106Z,2.73
2022-08-25T20:17:51.147Z,2.53
2022-08-25T20:20:24.823Z,2.03
2022-08-25T20:23:12.585Z,2.20
2022-08-25T20:25:43.130Z,2.20
2022-08-25T20:28:12.616Z,2.30
2022-08-25T20:30:43.849Z,2.40
2022-08-25T20:33:12.664Z,2.43
2022-08-25T20:35:42.613Z,2.60
2022-08-25T20:38:10.781Z,2.10
2022-08-25T20:40:41.305Z,2.83
2022-08-25T20:43:12.046Z,3.17
2022-08-25T20:45:41.215Z,2.07
2022-08-25T20:48:10.549Z,2.47
2022-08-25T20:50:42.460Z,2.83
2022-08-25T20:53:13.699Z,3.00
2022-08-25T20:55:43.733Z,2.67
2022-08-25T20:58:13.000Z,2.70
2022-08-25T21:00:51.871Z,2.67
2022-08-25T21:03:20.456Z,2.77
2022-08-25T21:05:48.121Z,2.17
2022-08-25T21:08:21.623Z,2.43
2022-08-25T21:10:51.543Z,2.30
2022-08-25T21:13:19.105Z,1.83
2022-08-25T21:15:49.148Z,2.20
2022-08-25T21:18:16.258Z,2.53
2022-08-25T21:20:43.904Z,2.47
2022-08-25T21:23:11.642Z,2.70
2022-08-25T21:25:41.562Z,2.60
2022-08-25T21:28:09.720Z,2.43
2022-08-25T21:30:44.711Z,2.83
2022-08-25T21:33:15.473Z,2.33
2022-08-25T21:35:46.886Z,2.20
2022-08-25T21:38:17.094Z,2.13
2022-08-25T21:40:48.639Z,2.63
2022-08-25T21:43:16.849Z,2.50
2022-08-25T21:45:46.993Z,2.67
2022-08-25T21:48:15.384Z,2.60
2022-08-25T21:50:46.113Z,2.70
2022-08-25T21:53:14.212Z,2.10
2022-08-25T21:55:44.646Z,2.07
2022-08-25T21:58:12.456Z,2.87
2022-08-25T22:00:44.081Z,3.03
2022-08-25T22:03:11.738Z,2.47
2022-08-25T22:05:40.638Z,2.20
2022-08-25T22:08:10.877Z,3.30
2022-08-25T22:10:44.891Z,2.40
2022-08-25T22:13:12.436Z,2.67
2022-08-25T22:15:40.252Z,2.47
2022-08-25T22:18:08.158Z,2.70
2022-08-25T22:20:39.174Z,3.03
2022-08-25T22:23:20.284Z,2.97
2022-08-25T22:25:48.606Z,2.90
2022-08-25T22:28:18.928Z,2.90
2022-08-25T22:30:46.609Z,2.77
2022-08-25T22:33:15.456Z,2.50
2022-08-25T22:35:43.569Z,2.57
2022-08-25T22:38:12.447Z,2.27
2022-08-25T22:40:41.119Z,2.97
2022-08-25T22:43:10.827Z,2.57
2022-08-25T22:45:39.084Z,2.60
2022-08-25T22:48:07.282Z,2.37
2022-08-25T22:50:36.564Z,2.60
2022-08-25T22:53:04.772Z,2.60
2022-08-25T22:55:32.873Z,2.93
2022-08-25T22:58:00.711Z,2.13
2022-08-25T23:00:28.363Z,2.77
2022-08-25T23:02:55.979Z,2.63
2022-08-25T23:05:23.775Z,2.70
2022-08-25T23:07:52.092Z,2.37
2022-08-25T23:10:20.884Z,2.77
2022-08-25T23:12:48.527Z,3.20
2022-08-25T23:15:16.189Z,2.83
2022-08-25T23:17:43.829Z,2.47
2022-08-25T23:20:44.796Z,1.97
2022-08-25T23:23:14.023Z,3.97
2022-08-25T23:25:41.419Z,2.43
2022-08-25T23:28:09.462Z,2.40
2022-08-25T23:30:40.133Z,2.63
2022-08-25T23:33:18.875Z,2.50
2022-08-25T23:35:47.859Z,2.30
2022-08-25T23:38:15.370Z,2.43
2022-08-25T23:40:44.804Z,2.67
2022-08-25T23:43:13.287Z,2.23
2022-08-25T23:45:41.246Z,3.40
2022-08-25T23:48:11.431Z,2.77
2022-08-25T23:50:42.092Z,2.53
2022-08-25T23:53:12.463Z,2.57
2022-08-25T23:55:51.399Z,2.77
2022-08-25T23:58:23.615Z,2.30
